Terminal Aerodrome Forecast
Issued by NWS Jackson, KY

Home | Current Version | Previous Version | Text Only | Print | Product List | Glossary On
Versions: 1 2 3 4 5 6 7 8 9 10 11 12 13 14 15 16 17 18
000
FTUS43 KJKL 181729
TAFJKL
TAF
KJKL 181729Z 1818/1918 00000KT P6SM SCT013 SCT020 OVC080
     FM181900 00000KT 6SM -SHRA VCTS SCT012CB BKN080 OVC200
     FM190300 00000KT P6SM VCSH FEW010 BKN040 BKN250
     FM191000 00000KT P6SM VCSH SCT020 BKN060 BKN200=

USA.gov is the U.S. government's official web portal to all federal, state and local government web resources and services.